createdAt,value
2018-09-23T00:01:57.963Z,96.50
2018-09-23T00:04:27.032Z,96.60
2018-09-23T00:06:55.996Z,96.90
2018-09-23T00:09:25.021Z,96.40
2018-09-23T00:11:54.019Z,96.80
2018-09-23T00:14:23.146Z,96.40
2018-09-23T00:16:52.082Z,96.60
2018-09-23T00:19:21.190Z,95.60
2018-09-23T00:21:50.292Z,96.10
2018-09-23T00:24:19.296Z,96.50
2018-09-23T00:26:48.303Z,96.20
2018-09-23T00:29:22.471Z,96.80
2018-09-23T00:31:51.876Z,97.10
2018-09-23T00:34:20.991Z,96.50
2018-09-23T00:36:50.155Z,96.50
2018-09-23T00:39:19.440Z,96.50
2018-09-23T00:41:48.591Z,96.20
2018-09-23T00:44:17.688Z,96.40
2018-09-23T00:46:46.871Z,96.40
2018-09-23T00:49:15.939Z,96.40
2018-09-23T00:51:45.132Z,96.50
2018-09-23T00:54:14.251Z,96.10
2018-09-23T00:56:43.261Z,95.90
2018-09-23T00:59:12.228Z,96.20
2018-09-23T01:01:41.317Z,95.90
2018-09-23T01:04:10.429Z,96.20
2018-09-23T01:06:39.528Z,96.30
2018-09-23T01:09:09.692Z,95.90
2018-09-23T01:11:39.055Z,96.20
2018-09-23T01:14:08.344Z,96.20
2018-09-23T01:16:37.318Z,96.10
2018-09-23T01:19:06.747Z,96.20
2018-09-23T01:21:35.851Z,96.50
2018-09-23T01:24:04.913Z,96.20
2018-09-23T01:26:34.117Z,96.80
2018-09-23T01:29:03.208Z,96.00
2018-09-23T01:31:32.397Z,96.60
2018-09-23T01:34:01.527Z,96.60
2018-09-23T01:36:30.497Z,96.40
2018-09-23T01:38:59.573Z,96.60
2018-09-23T01:41:28.796Z,96.60
2018-09-23T01:43:57.988Z,96.40
2018-09-23T01:46:27.109Z,96.40
2018-09-23T01:48:56.175Z,96.20
2018-09-23T01:51:25.152Z,96.50
2018-09-23T01:53:54.264Z,96.30
2018-09-23T01:56:23.348Z,96.10
2018-09-23T01:58:52.468Z,96.40
2018-09-23T02:01:21.560Z,95.90
2018-09-23T02:03:50.522Z,96.30
2018-09-23T02:06:19.639Z,96.00
2018-09-23T02:08:48.720Z,96.60
2018-09-23T02:11:17.853Z,96.00
2018-09-23T02:13:46.919Z,96.60
2018-09-23T02:16:16.020Z,96.40
2018-09-23T02:18:45.112Z,96.70
2018-09-23T02:21:14.280Z,96.60
2018-09-23T02:23:43.317Z,96.80
2018-09-23T02:26:12.388Z,96.40
2018-09-23T02:28:41.507Z,96.80
2018-09-23T02:31:10.585Z,97.00
2018-09-23T02:33:39.775Z,96.70
2018-09-23T02:36:08.899Z,96.80
2018-09-23T02:38:38.055Z,97.40
2018-09-23T02:41:07.164Z,97.00
2018-09-23T02:43:36.263Z,96.20
2018-09-23T02:46:05.257Z,96.40
2018-09-23T02:48:34.364Z,97.50
2018-09-23T02:51:03.437Z,97.40
2018-09-23T02:53:32.430Z,96.90
2018-09-23T02:56:01.624Z,97.20
2018-09-23T02:58:30.840Z,97.50
2018-09-23T03:00:59.931Z,97.40
2018-09-23T03:03:29.026Z,97.20
2018-09-23T03:05:58.201Z,97.60
2018-09-23T03:08:27.314Z,96.50
2018-09-23T03:10:56.399Z,96.80
2018-09-23T03:13:25.620Z,97.20
2018-09-23T03:15:54.592Z,97.00
2018-09-23T03:18:23.795Z,96.90
2018-09-23T03:20:52.792Z,97.00
2018-09-23T03:23:21.868Z,96.90
2018-09-23T03:25:50.886Z,96.90
2018-09-23T03:28:19.967Z,96.80
2018-09-23T03:30:49.061Z,97.20
2018-09-23T03:33:18.132Z,96.90
2018-09-23T03:35:47.125Z,97.10
2018-09-23T03:38:16.252Z,97.30
2018-09-23T03:40:45.336Z,97.00
2018-09-23T03:43:14.452Z,97.20
2018-09-23T03:45:43.523Z,97.00
2018-09-23T03:48:12.619Z,96.90
2018-09-23T03:50:41.842Z,97.10
2018-09-23T03:53:10.912Z,97.30
2018-09-23T03:55:40.004Z,97.40
2018-09-23T03:58:09.142Z,97.30
2018-09-23T04:00:38.229Z,97.20
2018-09-23T04:03:07.512Z,97.60
2018-09-23T04:05:36.600Z,98.10
2018-09-23T04:08:05.893Z,97.90
2018-09-23T04:10:34.984Z,97.80
2018-09-23T04:13:03.975Z,97.60
2018-09-23T04:15:33.065Z,97.80
2018-09-23T04:18:02.176Z,97.50
2018-09-23T04:20:31.360Z,97.20
2018-09-23T04:23:00.465Z,97.80
2018-09-23T04:25:29.560Z,97.80
2018-09-23T04:27:58.602Z,96.80
2018-09-23T04:30:27.641Z,97.60
2018-09-23T04:32:56.633Z,97.40
2018-09-23T04:35:25.836Z,97.50
2018-09-23T04:37:54.932Z,97.90
2018-09-23T04:40:24.025Z,98.10
2018-09-23T04:42:53.120Z,97.90
2018-09-23T04:45:22.324Z,96.70
2018-09-23T04:47:51.418Z,97.60
2018-09-23T04:50:20.476Z,97.80
2018-09-23T04:52:49.515Z,97.50
2018-09-23T04:55:18.517Z,97.80
2018-09-23T04:57:47.595Z,97.80
2018-09-23T05:00:16.799Z,97.80
2018-09-23T05:02:45.865Z,96.80
2018-09-23T05:05:14.998Z,97.20
2018-09-23T05:07:44.059Z,97.80
2018-09-23T05:10:13.324Z,98.00
2018-09-23T05:12:42.543Z,97.90
2018-09-23T05:15:11.636Z,97.00
2018-09-23T05:17:40.787Z,96.90
2018-09-23T05:20:09.959Z,98.00
2018-09-23T05:22:38.935Z,98.20
2018-09-23T05:25:08.025Z,97.50
2018-09-23T05:27:37.004Z,97.30
2018-09-23T05:30:06.369Z,97.50
2018-09-23T05:32:35.429Z,97.70
2018-09-23T05:35:04.536Z,97.80
2018-09-23T05:37:33.500Z,98.30
2018-09-23T05:40:03.399Z,98.30
2018-09-23T05:42:32.772Z,98.20
2018-09-23T05:45:02.000Z,98.60
2018-09-23T05:47:31.316Z,98.10
2018-09-23T05:50:00.516Z,97.80
2018-09-23T05:52:29.559Z,98.60
2018-09-23T05:54:58.757Z,98.20
2018-09-23T05:57:28.076Z,98.10
2018-09-23T05:59:57.951Z,98.40
2018-09-23T06:02:27.267Z,98.50
2018-09-23T06:04:56.440Z,98.60
2018-09-23T06:07:25.493Z,98.00
2018-09-23T06:09:54.735Z,98.70
2018-09-23T06:12:23.970Z,97.90
2018-09-23T06:14:53.195Z,98.20
2018-09-23T06:17:22.515Z,98.70
2018-09-23T06:19:51.766Z,98.40
2018-09-23T06:22:21.058Z,97.40
2018-09-23T06:24:50.438Z,97.60
2018-09-23T06:27:19.627Z,97.40
2018-09-23T06:29:48.885Z,97.60
2018-09-23T06:32:18.105Z,98.20
2018-09-23T06:34:47.612Z,97.60
2018-09-23T06:37:16.718Z,97.90
2018-09-23T06:39:45.672Z,98.70
2018-09-23T06:42:14.798Z,98.90
2018-09-23T06:44:44.008Z,98.70
2018-09-23T06:47:12.975Z,98.60
2018-09-23T06:51:41.168Z,98.70
2018-09-23T06:54:10.166Z,97.80
2018-09-23T06:56:39.256Z,97.30
2018-09-23T06:59:08.446Z,98.50
2018-09-23T07:01:37.736Z,98.50
2018-09-23T07:04:07.171Z,98.50
2018-09-23T07:06:36.135Z,98.10
2018-09-23T07:09:06.011Z,98.40
2018-09-23T07:11:35.102Z,98.20
2018-09-23T07:14:04.119Z,98.70
2018-09-23T07:16:33.258Z,98.20
2018-09-23T07:19:02.236Z,97.90
2018-09-23T07:21:31.209Z,98.80
2018-09-23T07:24:00.358Z,98.20
2018-09-23T07:26:29.419Z,99.20
2018-09-23T07:28:58.528Z,98.60
2018-09-23T07:31:29.542Z,98.00
2018-09-23T07:33:58.826Z,97.80
2018-09-23T07:36:27.922Z,97.60
2018-09-23T07:38:57.024Z,97.70
2018-09-23T07:41:26.147Z,97.60
2018-09-23T07:43:55.119Z,97.40
2018-09-23T07:46:24.295Z,97.30
2018-09-23T07:48:53.856Z,97.60
2018-09-23T07:51:22.923Z,97.30
2018-09-23T07:53:51.935Z,97.00
2018-09-23T07:56:21.037Z,97.90
2018-09-23T07:58:49.998Z,98.20
2018-09-23T08:01:19.489Z,98.00
2018-09-23T08:03:48.497Z,97.80
2018-09-23T08:06:17.533Z,98.20
2018-09-23T08:08:46.567Z,98.50
2018-09-23T08:11:16.670Z,98.70
2018-09-23T08:13:45.844Z,98.60
2018-09-23T08:16:14.928Z,98.90
2018-09-23T08:18:44.152Z,99.20
2018-09-23T08:21:13.427Z,98.90
2018-09-23T08:23:42.478Z,98.90
2018-09-23T08:26:11.576Z,99.20
2018-09-23T08:28:40.554Z,97.90
2018-09-23T08:31:10.001Z,97.80
2018-09-23T08:33:39.066Z,97.50
2018-09-23T08:36:08.152Z,98.30
2018-09-23T08:38:37.358Z,97.70
2018-09-23T08:41:06.543Z,97.60
2018-09-23T08:43:35.705Z,97.20
2018-09-23T08:46:04.837Z,97.50
2018-09-23T08:48:33.958Z,97.50
2018-09-23T08:51:03.024Z,97.50
2018-09-23T08:53:32.193Z,98.10
2018-09-23T08:56:01.363Z,98.70
2018-09-23T08:58:30.412Z,97.80
2018-09-23T09:00:59.503Z,97.90
2018-09-23T09:03:28.520Z,98.30
2018-09-23T09:05:57.493Z,98.70
2018-09-23T09:08:26.524Z,98.20
2018-09-23T09:10:55.488Z,97.50
2018-09-23T09:13:24.458Z,98.20
2018-09-23T09:15:53.475Z,98.50
2018-09-23T09:18:22.639Z,98.60
2018-09-23T09:20:51.667Z,97.90
2018-09-23T09:23:21.003Z,97.60
2018-09-23T09:25:50.240Z,97.30
2018-09-23T09:28:20.016Z,97.30
2018-09-23T09:30:48.788Z,96.20
2018-09-23T09:33:18.228Z,97.00
2018-09-23T09:35:47.631Z,95.80
2018-09-23T09:38:16.392Z,95.90
2018-09-23T09:40:45.309Z,95.70
2018-09-23T09:43:14.088Z,95.20
2018-09-23T09:45:44.083Z,96.20
2018-09-23T09:48:12.875Z,95.50
2018-09-23T09:50:42.823Z,95.20
2018-09-23T09:53:11.908Z,95.20
2018-09-23T09:55:41.035Z,94.30
2018-09-23T09:58:10.127Z,94.40
2018-09-23T10:00:39.218Z,93.90
2018-09-23T10:03:08.220Z,93.40
2018-09-23T10:05:37.524Z,94.00
2018-09-23T10:08:07.537Z,93.20
2018-09-23T10:10:36.559Z,93.10
2018-09-23T10:13:05.716Z,93.40
2018-09-23T10:15:34.684Z,93.00
2018-09-23T10:18:03.789Z,92.90
2018-09-23T10:20:32.992Z,92.60
2018-09-23T10:23:02.491Z,92.30
2018-09-23T10:25:31.615Z,92.10
2018-09-23T10:28:00.705Z,92.50
2018-09-23T10:30:29.797Z,91.70
2018-09-23T10:32:58.876Z,92.10
2018-09-23T10:35:28.116Z,93.20
2018-09-23T10:37:57.327Z,91.60
2018-09-23T10:40:27.084Z,91.50
2018-09-23T10:42:56.172Z,91.30
2018-09-23T10:45:25.283Z,91.90
2018-09-23T10:47:54.376Z,91.70
2018-09-23T10:50:23.475Z,90.20
2018-09-23T10:52:52.445Z,87.50
2018-09-23T10:55:21.586Z,86.20
2018-09-23T10:57:50.762Z,83.80
2018-09-23T11:00:19.884Z,88.40
2018-09-23T11:02:49.027Z,89.40
2018-09-23T11:05:18.251Z,88.30
2018-09-23T11:07:47.336Z,87.60
2018-09-23T11:10:16.413Z,82.80
2018-09-23T11:12:45.680Z,80.70
2018-09-23T11:15:15.055Z,81.90
2018-09-23T11:17:44.133Z,84.90
2018-09-23T11:20:13.342Z,80.40
2018-09-23T11:22:42.428Z,79.20
2018-09-23T11:25:11.628Z,81.30
2018-09-23T11:27:40.878Z,79.80
2018-09-23T11:30:09.915Z,79.00
2018-09-23T11:32:39.024Z,79.70
2018-09-23T11:35:08.222Z,79.00
2018-09-23T11:37:37.213Z,79.00
2018-09-23T11:40:06.629Z,77.10
2018-09-23T11:42:36.212Z,78.40
2018-09-23T11:45:05.512Z,74.70
2018-09-23T11:47:34.880Z,73.00
2018-09-23T11:50:04.149Z,75.80
2018-09-23T11:52:33.311Z,77.50
2018-09-23T11:55:02.406Z,76.20
2018-09-23T11:57:31.921Z,74.90
2018-09-23T12:00:01.021Z,73.20
2018-09-23T12:02:30.190Z,73.70
2018-09-23T12:04:59.322Z,74.90
2018-09-23T12:07:28.343Z,74.40
2018-09-23T12:09:57.641Z,74.70
2018-09-23T12:12:26.746Z,74.10
2018-09-23T12:14:56.182Z,73.10
2018-09-23T12:17:25.363Z,74.10
2018-09-23T12:19:54.763Z,73.90
2018-09-23T12:22:23.873Z,73.90
2018-09-23T12:24:53.112Z,76.20
2018-09-23T12:27:22.215Z,74.20
2018-09-23T12:29:51.257Z,75.40
2018-09-23T12:32:20.365Z,74.20
2018-09-23T12:34:49.431Z,73.10
2018-09-23T12:37:18.543Z,74.80
2018-09-23T12:39:47.767Z,73.00
2018-09-23T12:42:16.852Z,73.90
2018-09-23T12:44:45.838Z,71.60
2018-09-23T12:47:14.901Z,71.00
2018-09-23T12:49:44.173Z,71.20
2018-09-23T12:52:13.456Z,72.30
2018-09-23T12:54:42.553Z,71.70
2018-09-23T12:57:11.605Z,69.20
2018-09-23T12:59:40.691Z,70.20
2018-09-23T13:02:09.915Z,69.00
2018-09-23T13:04:39.045Z,67.30
2018-09-23T13:07:08.303Z,67.50
2018-09-23T13:09:37.383Z,66.90
2018-09-23T13:12:06.533Z,68.50
2018-09-23T13:14:35.592Z,66.30
2018-09-23T13:17:04.693Z,66.00
2018-09-23T13:19:33.824Z,65.60
2018-09-23T13:22:03.127Z,65.40
2018-09-23T13:24:32.459Z,64.70
2018-09-23T13:27:01.774Z,65.70
2018-09-23T13:29:30.922Z,63.80
2018-09-23T13:32:00.017Z,64.50
2018-09-23T13:34:28.200Z,64.20
2018-09-23T13:36:56.239Z,65.30
2018-09-23T13:39:24.523Z,65.10
2018-09-23T13:41:52.774Z,63.70
2018-09-23T13:44:20.996Z,63.00
2018-09-23T13:46:49.158Z,64.30
2018-09-23T13:49:17.231Z,64.50
2018-09-23T13:51:45.302Z,65.10
2018-09-23T13:54:13.495Z,64.10
2018-09-23T13:56:41.599Z,64.40
2018-09-23T13:59:09.867Z,63.20
2018-09-23T14:01:38.151Z,63.10
2018-09-23T14:04:06.291Z,63.30
2018-09-23T14:06:34.303Z,64.10
2018-09-23T14:09:02.462Z,62.50
2018-09-23T14:11:30.644Z,62.70
2018-09-23T14:13:58.923Z,63.30
2018-09-23T14:16:27.114Z,63.30
2018-09-23T14:18:55.355Z,64.50
2018-09-23T14:21:23.606Z,64.20
2018-09-23T14:23:51.978Z,64.50
2018-09-23T14:26:20.201Z,63.50
2018-09-23T14:28:48.593Z,62.80
2018-09-23T14:31:16.802Z,62.20
2018-09-23T14:33:44.933Z,61.60
2018-09-23T14:36:13.335Z,62.90
2018-09-23T14:38:41.658Z,62.80
2018-09-23T14:41:10.011Z,62.30
2018-09-23T14:43:38.682Z,62.20
2018-09-23T14:46:07.047Z,62.80
2018-09-23T14:48:35.207Z,61.40
2018-09-23T14:51:03.428Z,60.90
2018-09-23T14:53:31.783Z,61.30
2018-09-23T14:56:00.144Z,61.30
2018-09-23T14:58:28.289Z,61.90
2018-09-23T15:00:56.712Z,62.50
2018-09-23T15:03:24.901Z,61.60
2018-09-23T15:05:53.027Z,61.70
2018-09-23T15:08:21.119Z,60.80
2018-09-23T15:10:49.613Z,61.70
2018-09-23T15:13:17.677Z,61.80
2018-09-23T15:15:45.816Z,61.20
2018-09-23T15:18:14.026Z,61.00
2018-09-23T15:20:42.207Z,60.60
2018-09-23T15:23:10.272Z,61.20
2018-09-23T15:25:38.443Z,61.60
2018-09-23T15:28:06.639Z,61.60
2018-09-23T15:30:34.777Z,61.40
2018-09-23T15:33:02.962Z,62.00
2018-09-23T15:35:31.134Z,62.60
2018-09-23T15:37:59.280Z,63.00
2018-09-23T15:40:27.379Z,62.20
2018-09-23T15:42:55.552Z,62.70
2018-09-23T15:45:23.623Z,62.90
2018-09-23T15:47:51.798Z,62.80
2018-09-23T15:50:19.971Z,62.80
2018-09-23T15:52:48.072Z,62.00
2018-09-23T15:55:16.249Z,61.90
2018-09-23T15:57:44.387Z,62.30
2018-09-23T16:00:12.470Z,62.70
2018-09-23T16:02:40.990Z,62.10
2018-09-23T16:05:09.071Z,62.50
2018-09-23T16:07:37.213Z,62.30
2018-09-23T16:10:05.354Z,62.20
2018-09-23T16:12:33.425Z,62.00
2018-09-23T16:15:01.492Z,62.80
2018-09-23T16:17:29.533Z,62.70
2018-09-23T16:19:57.741Z,62.90
2018-09-23T16:22:25.883Z,62.90
2018-09-23T16:24:54.086Z,62.80
2018-09-23T16:27:22.465Z,62.70
2018-09-23T16:29:50.574Z,63.40
2018-09-23T16:32:18.767Z,62.90
2018-09-23T16:34:47.048Z,62.90
2018-09-23T16:37:15.263Z,62.80
2018-09-23T16:39:43.336Z,62.90
2018-09-23T16:42:11.384Z,63.10
2018-09-23T16:44:39.571Z,63.70
2018-09-23T16:47:07.651Z,63.80
2018-09-23T16:49:35.775Z,64.10
2018-09-23T16:52:03.878Z,64.30
2018-09-23T16:54:32.000Z,64.10
2018-09-23T16:56:59.993Z,64.90
2018-09-23T16:59:28.093Z,65.10
2018-09-23T17:01:56.201Z,65.80
2018-09-23T17:04:24.448Z,65.80
2018-09-23T17:06:52.520Z,66.80
2018-09-23T17:09:20.590Z,66.40
2018-09-23T17:11:48.626Z,66.90
2018-09-23T17:14:16.792Z,67.20
2018-09-23T17:16:44.947Z,68.00
2018-09-23T17:19:13.272Z,68.60
2018-09-23T17:21:41.456Z,68.60
2018-09-23T17:24:09.634Z,68.20
2018-09-23T17:26:38.463Z,69.20
2018-09-23T17:29:06.691Z,69.80
2018-09-23T17:31:34.719Z,70.00
2018-09-23T17:34:03.043Z,69.20
2018-09-23T17:36:31.270Z,70.20
2018-09-23T17:38:59.585Z,70.60
2018-09-23T17:41:27.645Z,70.80
2018-09-23T17:43:55.833Z,70.90
2018-09-23T17:46:23.986Z,71.10
2018-09-23T17:48:52.133Z,71.70
2018-09-23T17:51:20.362Z,72.30
2018-09-23T17:53:48.527Z,72.30
2018-09-23T17:56:16.804Z,72.60
2018-09-23T17:58:44.858Z,73.20
2018-09-23T18:01:12.928Z,73.30
2018-09-23T18:03:41.322Z,73.70
2018-09-23T18:06:09.349Z,74.00
2018-09-23T18:08:37.784Z,74.00
2018-09-23T18:11:06.017Z,74.60
2018-09-23T18:13:34.123Z,74.90
2018-09-23T18:16:02.301Z,75.10
2018-09-23T18:18:30.439Z,74.60
2018-09-23T18:20:58.639Z,74.80
2018-09-23T18:23:26.713Z,75.20
2018-09-23T18:25:54.776Z,75.00
2018-09-23T18:28:22.950Z,75.00
2018-09-23T18:30:51.000Z,75.40
2018-09-23T18:33:19.304Z,75.90
2018-09-23T18:35:47.435Z,75.70
2018-09-23T18:38:15.611Z,76.10
2018-09-23T18:40:43.953Z,76.50
2018-09-23T18:43:12.205Z,76.60
2018-09-23T18:45:40.233Z,76.70
2018-09-23T18:48:08.497Z,76.80
2018-09-23T18:50:36.714Z,77.00
2018-09-23T18:53:10.089Z,77.40
2018-09-23T18:55:38.518Z,77.80
2018-09-23T18:58:06.939Z,78.20
2018-09-23T19:00:35.351Z,78.10
2018-09-23T19:03:03.423Z,78.70
2018-09-23T19:05:31.663Z,79.10
2018-09-23T19:08:00.333Z,79.00
2018-09-23T19:10:29.019Z,79.20
2018-09-23T19:13:02.468Z,79.30
2018-09-23T19:15:30.983Z,79.20
2018-09-23T19:18:00.082Z,79.60
2018-09-23T19:20:29.475Z,80.20
2018-09-23T19:23:03.581Z,80.00
2018-09-23T19:25:32.660Z,80.40
2018-09-23T19:28:00.970Z,80.70
2018-09-23T19:30:30.075Z,80.50
2018-09-23T19:32:58.200Z,80.90
2018-09-23T19:35:26.469Z,80.70
2018-09-23T19:37:54.674Z,80.90
2018-09-23T19:40:22.807Z,80.80
2018-09-23T19:42:51.000Z,81.40
2018-09-23T19:45:19.159Z,81.30
2018-09-23T19:47:47.436Z,82.30
2018-09-23T19:50:15.484Z,82.50
2018-09-23T19:52:43.655Z,83.20
2018-09-23T19:55:12.058Z,84.00
2018-09-23T19:57:40.699Z,84.50
2018-09-23T20:00:08.915Z,84.30
2018-09-23T20:02:36.961Z,83.00
2018-09-23T20:05:05.153Z,84.20
2018-09-23T20:07:33.226Z,84.00
2018-09-23T20:10:01.291Z,84.40
2018-09-23T20:12:29.261Z,84.20
2018-09-23T20:14:58.100Z,84.50
2018-09-23T20:17:27.144Z,84.40
2018-09-23T20:19:55.071Z,85.70
2018-09-23T20:22:23.033Z,84.90
2018-09-23T20:24:51.256Z,84.90
2018-09-23T20:27:19.384Z,85.70
2018-09-23T20:29:47.604Z,84.60
2018-09-23T20:32:15.644Z,84.90
2018-09-23T20:34:43.742Z,85.50
2018-09-23T20:37:11.917Z,85.80
2018-09-23T20:39:39.943Z,85.80
2018-09-23T20:42:08.057Z,85.30
2018-09-23T20:44:37.100Z,86.10
2018-09-23T20:47:06.081Z,86.00
2018-09-23T20:49:35.092Z,85.60
2018-09-23T20:52:04.204Z,85.80
2018-09-23T20:54:33.264Z,86.40
2018-09-23T20:57:02.371Z,86.50
2018-09-23T20:59:31.573Z,86.80
2018-09-23T21:02:00.680Z,87.80
2018-09-23T21:04:29.768Z,88.10
2018-09-23T21:06:58.739Z,87.80
2018-09-23T21:09:27.736Z,88.90
2018-09-23T21:11:56.742Z,89.50
2018-09-23T21:14:25.760Z,90.60
2018-09-23T21:16:54.822Z,90.50
2018-09-23T21:19:23.810Z,90.90
2018-09-23T21:21:52.908Z,90.70
2018-09-23T21:24:21.996Z,90.60
2018-09-23T21:26:51.215Z,90.90
2018-09-23T21:29:20.280Z,91.10
2018-09-23T21:31:49.380Z,90.90
2018-09-23T21:34:18.469Z,91.30
2018-09-23T21:36:47.560Z,91.00
2018-09-23T21:39:16.688Z,91.20
2018-09-23T21:41:45.629Z,91.20
2018-09-23T21:44:14.749Z,91.20
2018-09-23T21:46:43.849Z,91.20
2018-09-23T21:49:12.950Z,91.00
2018-09-23T21:51:42.061Z,91.30
2018-09-23T21:54:11.047Z,91.70
2018-09-23T21:56:40.220Z,92.30
2018-09-23T21:59:09.350Z,91.70
2018-09-23T22:01:38.488Z,91.90
2018-09-23T22:04:07.556Z,92.50
2018-09-23T22:06:36.606Z,92.40
2018-09-23T22:09:07.307Z,91.90
2018-09-23T22:11:36.333Z,91.90
2018-09-23T22:14:05.424Z,92.20
2018-09-23T22:16:34.635Z,92.60
2018-09-23T22:19:03.617Z,92.10
2018-09-23T22:21:32.698Z,92.50
2018-09-23T22:24:01.817Z,93.20
2018-09-23T22:26:30.784Z,92.50
2018-09-23T22:28:59.816Z,92.90
2018-09-23T22:31:28.767Z,93.60
2018-09-23T22:33:57.877Z,93.80
2018-09-23T22:36:26.959Z,94.10
2018-09-23T22:38:56.075Z,94.40
2018-09-23T22:41:25.288Z,94.60
2018-09-23T22:43:54.270Z,94.90
2018-09-23T22:46:23.247Z,95.00
2018-09-23T22:48:52.255Z,95.00
2018-09-23T22:51:21.351Z,95.00
2018-09-23T22:53:50.364Z,95.40
2018-09-23T22:56:19.422Z,94.90
2018-09-23T22:58:48.505Z,94.70
2018-09-23T23:01:17.515Z,95.50
2018-09-23T23:03:46.604Z,96.00
2018-09-23T23:06:15.714Z,96.00
2018-09-23T23:08:44.792Z,96.40
2018-09-23T23:11:13.884Z,97.00
2018-09-23T23:13:42.994Z,97.70
2018-09-23T23:16:12.076Z,98.40
2018-09-23T23:18:41.308Z,99.10
2018-09-23T23:21:10.267Z,99.10
2018-09-23T23:23:39.252Z,99.20
2018-09-23T23:26:08.348Z,99.50
2018-09-23T23:28:37.447Z,99.20
2018-09-23T23:31:06.667Z,99.90
2018-09-23T23:33:35.650Z,99.60
2018-09-23T23:36:04.835Z,99.30
2018-09-23T23:38:33.828Z,99.50
2018-09-23T23:41:02.922Z,99.90
2018-09-23T23:43:32.057Z,99.90
2018-09-23T23:46:01.103Z,99.90
2018-09-23T23:48:30.208Z,99.90
2018-09-23T23:50:59.305Z,99.90
2018-09-23T23:53:28.496Z,99.90
2018-09-23T23:55:57.707Z,99.90
2018-09-23T23:58:26.784Z,99.90
